Time;durP1;ratioP1;P1;durP2;ratioP2;P2;SDS_P1;SDS_P2;PMS_P1;PMS_P2;Temp;Humidity;BMP_temperature;BMP_pressure;BME280_temperature;BME280_humidity;BME280_pressure;Samples;Min_cycle;Max_cycle;Signal;HPM_P1;HPM_P2
2022/01/21 00:01:49;;;;;;;28.35;9.80;;;;;;;;;;4730265;30;20052;-79
2022/01/21 00:07:42;;;;;;;9.45;5.18;;;;;;;;;;4732472;30;20101;-84
2022/01/21 00:18:07;;;;;;;10.95;6.32;;;;;;;;;;4666349;30;20046;-83
2022/01/21 00:30:16;;;;;;;12.77;6.03;;;;;;;;;;4737541;30;20085;-81
2022/01/21 00:32:44;;;;;;;18.10;6.68;;;;;;;;;;4895413;29;20053;-80
2022/01/21 00:35:10;;;;;;;18.65;7.20;;;;;;;;;;4898136;29;20096;-82
2022/01/21 00:37:37;;;;;;;14.00;8.02;;;;;;;;;;4898294;29;20079;-84
2022/01/21 00:40:05;;;;;;;16.25;7.82;;;;;;;;;;4897016;29;20042;-84
2022/01/21 00:42:48;;;;;;;12.43;7.00;;;;;;;;;;4898154;29;20028;-81
2022/01/21 00:45:16;;;;;;;13.90;7.30;;;;;;;;;;4880939;29;20038;-81
2022/01/21 00:47:43;;;;;;;18.25;9.07;;;;;;;;;;4898072;29;20028;-84
2022/01/21 00:50:09;;;;;;;18.65;10.27;;;;;;;;;;4897755;29;20052;-84
2022/01/21 00:52:35;;;;;;;19.10;8.50;;;;;;;;;;4897766;29;20028;-83
2022/01/21 00:55:01;;;;;;;15.05;8.93;;;;;;;;;;4897788;29;20035;-82
2022/01/21 00:57:26;;;;;;;16.70;9.88;;;;;;;;;;4897856;29;20032;-82
2022/01/21 00:59:52;;;;;;;15.30;8.48;;;;;;;;;;4895827;29;20084;-81
2022/01/21 01:02:17;;;;;;;12.88;7.53;;;;;;;;;;4897938;29;20037;-82
2022/01/21 01:04:43;;;;;;;13.73;7.45;;;;;;;;;;4897776;29;20047;-83
2022/01/21 01:07:08;;;;;;;15.80;8.50;;;;;;;;;;4897154;29;20036;-83
2022/01/21 01:09:34;;;;;;;16.55;8.68;;;;;;;;;;4877172;29;20107;-81
2022/01/21 01:22:26;;;;;;;12.18;6.93;;;;;;;;;;4897519;29;20040;-82
2022/01/21 01:27:46;;;;;;;10.93;5.38;;;;;;;;;;4897354;29;20038;-81
2022/01/21 01:30:15;;;;;;;9.77;5.60;;;;;;;;;;4895055;29;20123;-83
2022/01/21 01:32:42;;;;;;;18.60;6.13;;;;;;;;;;4896445;29;20049;-78
2022/01/21 01:35:11;;;;;;;11.82;5.80;;;;;;;;;;4896873;29;20029;-80
2022/01/21 01:40:20;;;;;;;16.58;6.78;;;;;;;;;;4896551;29;20130;-83
2022/01/21 01:50:40;;;;;;;10.52;6.65;;;;;;;;;;4897285;29;20381;-81
2022/01/21 01:53:08;;;;;;;13.23;6.60;;;;;;;;;;4896956;29;20469;-81
2022/01/21 01:55:35;;;;;;;16.02;7.47;;;;;;;;;;4896614;29;20024;-80
2022/01/21 01:58:00;;;;;;;17.50;9.13;;;;;;;;;;4895537;29;20128;-81
2022/01/21 02:00:26;;;;;;;16.88;8.63;;;;;;;;;;4896522;29;20541;-81
2022/01/21 02:02:51;;;;;;;17.98;9.00;;;;;;;;;;4896571;29;20162;-80
2022/01/21 02:05:17;;;;;;;12.82;8.00;;;;;;;;;;4896220;29;20096;-80
2022/01/21 02:07:45;;;;;;;15.52;9.10;;;;;;;;;;4896332;29;20060;-81
2022/01/21 02:10:10;;;;;;;26.88;12.40;;;;;;;;;;4896289;29;20025;-82
2022/01/21 02:12:36;;;;;;;20.73;10.80;;;;;;;;;;4879415;29;20028;-81
2022/01/21 02:15:02;;;;;;;21.33;10.32;;;;;;;;;;4896427;29;20042;-81
2022/01/21 02:22:42;;;;;;;19.95;8.60;;;;;;;;;;4896255;29;20047;-80
2022/01/21 02:25:16;;;;;;;16.40;8.75;;;;;;;;;;4879063;29;20041;-80
2022/01/21 02:27:57;;;;;;;14.50;8.30;;;;;;;;;;4879037;29;20497;-79
2022/01/21 02:30:24;;;;;;;15.27;9.35;;;;;;;;;;4896022;29;20051;-83
2022/01/21 02:32:52;;;;;;;17.50;8.13;;;;;;;;;;4895963;29;20704;-81
2022/01/21 02:35:19;;;;;;;12.80;8.02;;;;;;;;;;4895901;29;20032;-80
2022/01/21 02:37:46;;;;;;;16.42;8.85;;;;;;;;;;4896273;29;20036;-79
2022/01/21 02:40:12;;;;;;;25.52;11.70;;;;;;;;;;4895836;29;20047;-80
2022/01/21 02:42:38;;;;;;;25.08;11.93;;;;;;;;;;4895846;29;20556;-80
2022/01/21 02:45:06;;;;;;;24.23;11.02;;;;;;;;;;4896074;29;20116;-79
2022/01/21 02:47:31;;;;;;;27.88;12.23;;;;;;;;;;4895957;29;20036;-80
2022/01/21 02:49:57;;;;;;;24.60;10.82;;;;;;;;;;4895974;29;20028;-80
2022/01/21 02:52:26;;;;;;;16.00;10.25;;;;;;;;;;4895951;29;20038;-80
2022/01/21 02:54:52;;;;;;;17.48;9.90;;;;;;;;;;4895334;29;20056;-80
2022/01/21 02:57:17;;;;;;;14.73;8.63;;;;;;;;;;4895742;29;20059;-82
2022/01/21 03:06:45;;;;;;;11.15;6.13;;;;;;;;;;4802795;29;20186;-82
2022/01/21 03:09:11;;;;;;;10.23;6.20;;;;;;;;;;4893485;29;20512;-80
2022/01/21 03:15:27;;;;;;;7.60;4.35;;;;;;;;;;4887962;29;20048;-79
2022/01/21 03:17:53;;;;;;;7.25;4.60;;;;;;;;;;4895224;29;20033;-82
2022/01/21 03:24:31;;;;;;;3.33;1.85;;;;;;;;;;4836111;29;20486;-85
2022/01/21 03:26:56;;;;;;;3.90;1.38;;;;;;;;;;4858989;29;20041;-80
2022/01/21 03:29:22;;;;;;;2.47;1.20;;;;;;;;;;4894867;29;20032;-81
2022/01/21 03:31:48;;;;;;;3.38;1.30;;;;;;;;;;4895467;29;20366;-81
2022/01/21 03:34:13;;;;;;;2.53;1.20;;;;;;;;;;4895122;29;20032;-81
2022/01/21 03:36:40;;;;;;;2.03;1.20;;;;;;;;;;4895489;29;20120;-81
2022/01/21 03:39:06;;;;;;;2.53;1.30;;;;;;;;;;4895096;29;20532;-81
2022/01/21 03:41:32;;;;;;;1.30;1.00;;;;;;;;;;4897074;29;20370;-81
2022/01/21 03:43:57;;;;;;;5.22;3.67;;;;;;;;;;4899068;29;20036;-83
2022/01/21 03:46:23;;;;;;;5.35;2.88;;;;;;;;;;4882456;29;20040;-85
2022/01/21 03:48:50;;;;;;;3.05;1.88;;;;;;;;;;4899360;29;20032;-83
2022/01/21 03:51:18;;;;;;;2.20;1.60;;;;;;;;;;4899414;29;20024;-82
2022/01/21 03:53:44;;;;;;;1.17;0.82;;;;;;;;;;4899200;29;20114;-81
2022/01/21 03:56:10;;;;;;;2.42;1.25;;;;;;;;;;4899161;29;20044;-83
2022/01/21 03:58:35;;;;;;;9.85;4.15;;;;;;;;;;4896426;29;20033;-83
2022/01/21 04:01:01;;;;;;;10.68;5.35;;;;;;;;;;4899092;29;20029;-81
2022/01/21 04:03:27;;;;;;;4.78;1.60;;;;;;;;;;4881955;29;20410;-82
2022/01/21 04:05:52;;;;;;;1.10;0.57;;;;;;;;;;4899056;29;20099;-82
2022/01/21 04:08:18;;;;;;;0.50;0.50;;;;;;;;;;4896512;29;20064;-83
2022/01/21 04:10:46;;;;;;;0.45;0.40;;;;;;;;;;4899012;29;20031;-82
2022/01/21 04:13:16;;;;;;;0.32;0.32;;;;;;;;;;4879474;29;20032;-83
2022/01/21 04:15:42;;;;;;;;;;;;;;;;;;4882571;29;20056;-81
2022/01/21 04:18:08;;;;;;;0.98;0.73;;;;;;;;;;4898382;29;19994;-81
2022/01/21 04:20:34;;;;;;;1.15;0.88;;;;;;;;;;4898497;29;20120;-80
2022/01/21 04:22:59;;;;;;;1.52;0.90;;;;;;;;;;4881804;29;20107;-82
2022/01/21 04:25:25;;;;;;;1.00;0.85;;;;;;;;;;4898575;29;20029;-82
2022/01/21 04:27:50;;;;;;;2.08;1.58;;;;;;;;;;4898786;29;20032;-83
2022/01/21 04:30:16;;;;;;;1.60;1.10;;;;;;;;;;4881175;29;20035;-84
2022/01/21 04:32:42;;;;;;;1.45;0.90;;;;;;;;;;4898597;29;20036;-85
2022/01/21 04:35:08;;;;;;;2.03;1.30;;;;;;;;;;4897397;29;20037;-84
2022/01/21 04:37:33;;;;;;;2.17;1.40;;;;;;;;;;4898386;29;20498;-86
2022/01/21 04:47:53;;;;;;;4.72;1.52;;;;;;;;;;4897964;29;20047;-82
2022/01/21 04:50:18;;;;;;;2.55;1.48;;;;;;;;;;4897914;29;20024;-83
2022/01/21 04:52:45;;;;;;;4.80;2.80;;;;;;;;;;4898138;29;20052;-82
2022/01/21 04:55:11;;;;;;;2.45;0.90;;;;;;;;;;4896628;29;20536;-80
2022/01/21 04:57:37;;;;;;;1.75;0.57;;;;;;;;;;4897777;29;20024;-82
2022/01/21 05:00:06;;;;;;;1.70;1.10;;;;;;;;;;4897618;29;20032;-82
2022/01/21 05:02:33;;;;;;;6.57;2.38;;;;;;;;;;4880862;29;20036;-81
2022/01/21 05:04:58;;;;;;;3.53;2.13;;;;;;;;;;4897781;29;20103;-81
2022/01/21 05:07:26;;;;;;;2.60;1.35;;;;;;;;;;4897472;29;20524;-81
2022/01/21 05:09:51;;;;;;;2.38;1.48;;;;;;;;;;4880492;29;20060;-81
2022/01/21 05:12:20;;;;;;;3.15;1.65;;;;;;;;;;4897594;29;20092;-82
2022/01/21 05:17:15;;;;;;;4.35;2.08;;;;;;;;;;4897202;29;20071;-82
2022/01/21 05:19:41;;;;;;;2.65;1.70;;;;;;;;;;4895883;29;20056;-80
2022/01/21 05:22:07;;;;;;;2.28;1.40;;;;;;;;;;4897540;29;20067;-81
2022/01/21 05:24:32;;;;;;;1.27;0.90;;;;;;;;;;4897744;29;20028;-82
2022/01/21 05:27:00;;;;;;;3.85;1.30;;;;;;;;;;4897178;29;20485;-82
2022/01/21 05:29:28;;;;;;;3.33;2.03;;;;;;;;;;4880107;29;20582;-86
2022/01/21 05:31:54;;;;;;;1.58;1.33;;;;;;;;;;4897332;29;20474;-82
2022/01/21 05:34:20;;;;;;;1.70;1.10;;;;;;;;;;4897346;29;20029;-81
2022/01/21 05:36:46;;;;;;;1.42;0.90;;;;;;;;;;4880718;29;20024;-80
2022/01/21 05:39:12;;;;;;;1.42;1.00;;;;;;;;;;4896469;29;20039;-80
2022/01/21 05:41:38;;;;;;;0.98;0.68;;;;;;;;;;4877865;29;20021;-82
2022/01/21 05:44:15;;;;;;;2.53;1.30;;;;;;;;;;4897368;29;20032;-83
2022/01/21 05:46:56;;;;;;;1.55;1.02;;;;;;;;;;4896918;29;20036;-83
2022/01/21 05:49:24;;;;;;;2.65;1.20;;;;;;;;;;4893421;29;20032;-81
2022/01/21 05:51:52;;;;;;;1.95;1.25;;;;;;;;;;4897378;29;20024;-84
2022/01/21 05:54:23;;;;;;;1.58;0.95;;;;;;;;;;4895797;29;20032;-80
2022/01/21 05:56:49;;;;;;;1.65;0.90;;;;;;;;;;4897417;29;20036;-84
2022/01/21 05:59:15;;;;;;;3.10;1.30;;;;;;;;;;4897160;29;20145;-83
2022/01/21 06:01:40;;;;;;;1.77;1.10;;;;;;;;;;4896823;29;20504;-84
2022/01/21 06:04:06;;;;;;;1.58;1.20;;;;;;;;;;4896594;29;20024;-82
2022/01/21 06:06:32;;;;;;;1.73;1.02;;;;;;;;;;4897208;29;20032;-85
2022/01/21 06:08:58;;;;;;;2.92;1.10;;;;;;;;;;4896694;29;20039;-85
2022/01/21 06:11:23;;;;;;;1.45;0.80;;;;;;;;;;4897238;29;20147;-84
2022/01/21 06:13:51;;;;;;;1.27;1.17;;;;;;;;;;4896914;29;20024;-82
2022/01/21 06:16:18;;;;;;;2.17;1.13;;;;;;;;;;4896704;29;20092;-82
2022/01/21 06:18:44;;;;;;;1.88;1.35;;;;;;;;;;4896626;29;20104;-83
2022/01/21 06:21:10;;;;;;;2.85;2.05;;;;;;;;;;4896816;29;20040;-84
2022/01/21 06:23:36;;;;;;;2.95;1.90;;;;;;;;;;4896496;29;20080;-82
2022/01/21 06:26:02;;;;;;;3.65;2.17;;;;;;;;;;4880174;29;20032;-80
2022/01/21 06:28:28;;;;;;;19.17;8.40;;;;;;;;;;4896792;29;20045;-82
2022/01/21 06:30:53;;;;;;;34.50;16.13;;;;;;;;;;4896971;29;20129;-84
2022/01/21 06:33:20;;;;;;;6.03;3.63;;;;;;;;;;4895612;29;20396;-84
2022/01/21 06:35:47;;;;;;;14.13;8.95;;;;;;;;;;4879502;29;20099;-83
2022/01/21 06:38:13;;;;;;;24.30;15.10;;;;;;;;;;4897256;29;20036;-81
2022/01/21 06:40:38;;;;;;;15.90;9.05;;;;;;;;;;4896900;29;20096;-82
2022/01/21 06:43:04;;;;;;;5.80;3.08;;;;;;;;;;4894531;29;20032;-82
2022/01/21 06:45:30;;;;;;;2.78;1.80;;;;;;;;;;4895834;29;20041;-82
2022/01/21 06:47:58;;;;;;;4.50;2.15;;;;;;;;;;4895863;29;20118;-80
2022/01/21 06:50:27;;;;;;;3.83;1.90;;;;;;;;;;4893190;29;20060;-83
2022/01/21 06:52:52;;;;;;;9.18;3.92;;;;;;;;;;4895417;29;20028;-80
2022/01/21 06:55:18;;;;;;;11.82;5.68;;;;;;;;;;4895462;29;20481;-79
2022/01/21 06:57:44;;;;;;;13.65;4.68;;;;;;;;;;4894929;29;20433;-84
2022/01/21 07:00:13;;;;;;;12.38;4.90;;;;;;;;;;4878702;29;20458;-81
2022/01/21 07:02:39;;;;;;;5.88;3.88;;;;;;;;;;4895033;29;20083;-82
2022/01/21 07:05:06;;;;;;;10.40;3.50;;;;;;;;;;4894219;29;20511;-83
2022/01/21 07:07:32;;;;;;;12.23;4.30;;;;;;;;;;4893261;29;20541;-81
2022/01/21 07:10:00;;;;;;;10.35;5.38;;;;;;;;;;4895469;29;20029;-80
2022/01/21 07:12:26;;;;;;;10.63;5.30;;;;;;;;;;4895278;29;20481;-84
2022/01/21 07:14:51;;;;;;;8.93;4.15;;;;;;;;;;4895691;29;20033;-82
2022/01/21 07:17:17;;;;;;;2.05;1.45;;;;;;;;;;4896964;29;20041;-81
2022/01/21 07:19:42;;;;;;;3.35;1.48;;;;;;;;;;4897583;29;20044;-85
2022/01/21 07:22:08;;;;;;;1.92;0.98;;;;;;;;;;4899525;29;20056;-83
2022/01/21 07:24:33;;;;;;;3.28;1.73;;;;;;;;;;4882747;29;20475;-80
2022/01/21 07:26:59;;;;;;;3.03;1.48;;;;;;;;;;4896715;29;20024;-80
2022/01/21 07:29:24;;;;;;;2.50;1.20;;;;;;;;;;4899227;29;20036;-84
2022/01/21 07:31:54;;;;;;;3.28;1.45;;;;;;;;;;4898064;29;20744;-81
2022/01/21 07:34:24;;;;;;;1.67;1.27;;;;;;;;;;4897436;29;20040;-81
2022/01/21 07:36:49;;;;;;;;;;;;;;;;;;4896650;29;20048;-82
2022/01/21 07:39:15;;;;;;;1.45;0.80;;;;;;;;;;4898549;29;19919;-81
2022/01/21 07:41:40;;;;;;;3.70;1.70;;;;;;;;;;4899338;29;20032;-79
2022/01/21 07:44:06;;;;;;;3.67;1.90;;;;;;;;;;4899127;29;20063;-82
2022/01/21 07:46:32;;;;;;;1.42;1.20;;;;;;;;;;4896631;29;20024;-80
2022/01/21 07:48:59;;;;;;;3.45;2.35;;;;;;;;;;4899117;29;20100;-82
2022/01/21 07:51:26;;;;;;;16.08;8.40;;;;;;;;;;4899477;29;20028;-83
2022/01/21 07:53:51;;;;;;;7.03;3.88;;;;;;;;;;4898209;29;20036;-81
2022/01/21 07:56:17;;;;;;;3.50;2.30;;;;;;;;;;4898907;29;20095;-81
2022/01/21 07:58:42;;;;;;;3.22;2.17;;;;;;;;;;4898854;29;20029;-82
2022/01/21 08:01:08;;;;;;;4.13;2.70;;;;;;;;;;4882209;29;20036;-78
2022/01/21 08:03:33;;;;;;;13.77;7.32;;;;;;;;;;4898449;29;20136;-80
2022/01/21 08:05:59;;;;;;;4.82;2.90;;;;;;;;;;4898914;29;20028;-81
2022/01/21 08:08:26;;;;;;;5.20;2.70;;;;;;;;;;4898761;29;20122;-81
2022/01/21 08:10:52;;;;;;;8.95;4.22;;;;;;;;;;4898522;29;20097;-80
2022/01/21 08:13:17;;;;;;;7.60;3.83;;;;;;;;;;4898446;29;20024;-81
2022/01/21 08:15:43;;;;;;;5.85;3.53;;;;;;;;;;4897331;29;20033;-81
2022/01/21 08:18:09;;;;;;;2.65;1.20;;;;;;;;;;4898640;29;20043;-80
2022/01/21 08:20:35;;;;;;;2.38;1.35;;;;;;;;;;4898484;29;20039;-80
2022/01/21 08:23:01;;;;;;;2.83;1.20;;;;;;;;;;4898253;29;20024;-82
2022/01/21 08:25:26;;;;;;;4.88;1.75;;;;;;;;;;4897936;29;20567;-80
2022/01/21 08:27:52;;;;;;;1.83;1.08;;;;;;;;;;4897637;29;20024;-79
2022/01/21 08:30:17;;;;;;;1.25;0.80;;;;;;;;;;4880030;29;20036;-81
2022/01/21 08:32:43;;;;;;;1.80;1.15;;;;;;;;;;4896393;29;20090;-82
2022/01/21 08:35:09;;;;;;;1.73;0.80;;;;;;;;;;4897906;29;20056;-81
2022/01/21 08:37:35;;;;;;;1.08;0.60;;;;;;;;;;4896985;29;20033;-82
2022/01/21 08:40:02;;;;;;;0.98;0.47;;;;;;;;;;4896806;29;20034;-81
2022/01/21 08:42:27;;;;;;;0.60;0.40;;;;;;;;;;4896977;29;20054;-81
2022/01/21 08:44:53;;;;;;;0.30;0.30;;;;;;;;;;4897943;29;20454;-81
2022/01/21 08:47:21;;;;;;;0.88;0.50;;;;;;;;;;4882410;29;20096;-81
2022/01/21 08:49:48;;;;;;;1.67;0.43;;;;;;;;;;4893090;29;20032;-81
2022/01/21 08:52:19;;;;;;;2.63;0.60;;;;;;;;;;4896927;29;20398;-80
2022/01/21 08:54:46;;;;;;;0.50;0.40;;;;;;;;;;4897387;29;20111;-82
2022/01/21 08:57:11;;;;;;;0.38;0.38;;;;;;;;;;4896602;29;20032;-80
2022/01/21 08:59:37;;;;;;;0.38;0.30;;;;;;;;;;4897164;29;20362;-81
2022/01/21 09:02:03;;;;;;;0.38;0.38;;;;;;;;;;4896410;29;20378;-82
2022/01/21 09:04:28;;;;;;;0.77;0.40;;;;;;;;;;4897077;29;20032;-82
2022/01/21 09:06:54;;;;;;;0.20;0.20;;;;;;;;;;4896446;29;20453;-80
2022/01/21 09:09:19;;;;;;;3.08;0.82;;;;;;;;;;4897343;29;20084;-82
2022/01/21 09:11:45;;;;;;;0.43;0.43;;;;;;;;;;4897454;29;20040;-79
2022/01/21 09:14:11;;;;;;;0.73;0.50;;;;;;;;;;4897459;29;20025;-81
2022/01/21 09:16:37;;;;;;;1.60;0.50;;;;;;;;;;4897204;29;20028;-80
2022/01/21 09:19:04;;;;;;;0.95;0.57;;;;;;;;;;4897636;29;20042;-80
2022/01/21 09:21:33;;;;;;;1.73;1.00;;;;;;;;;;4897096;29;20147;-80
2022/01/21 09:23:59;;;;;;;0.40;0.40;;;;;;;;;;4893996;29;20025;-79
2022/01/21 09:26:25;;;;;;;1.65;0.85;;;;;;;;;;4897857;29;21072;-80
2022/01/21 09:28:51;;;;;;;1.27;0.70;;;;;;;;;;4896958;29;20469;-82
2022/01/21 09:31:18;;;;;;;1.30;0.80;;;;;;;;;;4895875;29;20846;-80
2022/01/21 09:33:45;;;;;;;0.98;0.60;;;;;;;;;;4896328;29;20040;-81
2022/01/21 09:36:12;;;;;;;1.55;0.40;;;;;;;;;;4897013;29;20107;-79
2022/01/21 09:38:38;;;;;;;0.60;0.60;;;;;;;;;;4896689;29;20035;-80
2022/01/21 09:41:05;;;;;;;0.35;0.32;;;;;;;;;;4896957;29;20033;-81
2022/01/21 09:43:36;;;;;;;0.40;0.30;;;;;;;;;;4896915;29;20044;-82
2022/01/21 09:46:05;;;;;;;1.75;0.70;;;;;;;;;;4896830;29;20120;-82
2022/01/21 09:48:36;;;;;;;0.68;0.45;;;;;;;;;;4896616;29;20032;-79
2022/01/21 09:51:02;;;;;;;0.93;0.50;;;;;;;;;;4896925;29;20037;-83
2022/01/21 09:53:34;;;;;;;0.30;0.30;;;;;;;;;;4895979;29;20044;-81
2022/01/21 09:56:02;;;;;;;1.83;0.60;;;;;;;;;;4893194;29;20237;-82
2022/01/21 09:58:30;;;;;;;5.85;3.28;;;;;;;;;;4896988;29;20043;-81
2022/01/21 10:01:00;;;;;;;5.53;2.55;;;;;;;;;;4894541;29;20040;-81
2022/01/21 10:03:27;;;;;;;6.85;3.15;;;;;;;;;;4879451;29;20540;-83
2022/01/21 10:05:54;;;;;;;2.47;1.85;;;;;;;;;;4896315;29;20995;-81
2022/01/21 10:08:23;;;;;;;3.20;1.33;;;;;;;;;;4895630;29;20040;-81
2022/01/21 10:10:49;;;;;;;10.75;4.57;;;;;;;;;;4895919;29;20025;-78
2022/01/21 10:13:17;;;;;;;9.27;5.28;;;;;;;;;;4894123;29;20388;-80
2022/01/21 10:15:43;;;;;;;9.02;5.20;;;;;;;;;;4895786;29;20043;-81
2022/01/21 10:18:15;;;;;;;6.72;4.13;;;;;;;;;;4894147;29;20520;-81
2022/01/21 10:21:01;;;;;;;9.85;3.38;;;;;;;;;;4895147;29;20507;-82
2022/01/21 10:23:29;;;;;;;13.65;5.47;;;;;;;;;;4896058;29;20500;-79
2022/01/21 10:25:59;;;;;;;8.82;5.10;;;;;;;;;;4895586;29;20035;-80
2022/01/21 10:28:24;;;;;;;8.68;4.35;;;;;;;;;;4878609;29;20032;-79
2022/01/21 10:31:04;;;;;;;8.43;4.57;;;;;;;;;;4895694;29;20036;-80
2022/01/21 10:33:30;;;;;;;;;;;;;;;;;;4894624;29;20048;-81
2022/01/21 10:36:25;;;;;;;6.28;2.90;;;;;;;;;;4878297;29;19923;-81
2022/01/21 10:39:17;;;;;;;10.32;4.57;;;;;;;;;;4890545;29;20040;-80
2022/01/21 10:41:45;;;;;;;8.23;4.40;;;;;;;;;;4895116;29;20040;-80
2022/01/21 10:44:19;;;;;;;4.50;2.97;;;;;;;;;;4893831;29;20036;-81
2022/01/21 10:47:00;;;;;;;7.18;3.58;;;;;;;;;;4876828;29;20032;-80
2022/01/21 10:49:26;;;;;;;7.57;4.07;;;;;;;;;;4894005;29;20060;-80
2022/01/21 10:51:52;;;;;;;5.07;3.80;;;;;;;;;;4893621;29;20055;-80
2022/01/21 10:54:20;;;;;;;7.60;3.60;;;;;;;;;;4891823;29;20529;-79
2022/01/21 10:57:04;;;;;;;8.50;4.03;;;;;;;;;;4895146;29;20116;-81
2022/01/21 11:00:15;;;;;;;7.57;3.38;;;;;;;;;;4894781;29;20085;-81
2022/01/21 11:02:51;;;;;;;6.22;3.55;;;;;;;;;;4889532;29;20044;-79
2022/01/21 11:05:30;;;;;;;2.90;1.08;;;;;;;;;;4893450;29;20065;-78
2022/01/21 11:08:03;;;;;;;9.10;3.53;;;;;;;;;;4892926;29;20033;-80
2022/01/21 11:10:31;;;;;;;8.18;4.68;;;;;;;;;;4892304;29;20057;-78
2022/01/21 11:13:20;;;;;;;14.10;7.82;;;;;;;;;;4894613;29;20032;-78
2022/01/21 11:15:50;;;;;;;3.97;2.78;;;;;;;;;;4894526;29;20060;-78
2022/01/21 11:18:19;;;;;;;3.53;2.00;;;;;;;;;;4893120;29;20115;-78
2022/01/21 11:20:48;;;;;;;6.75;4.30;;;;;;;;;;4894831;29;20032;-78
2022/01/21 11:23:15;;;;;;;6.40;3.97;;;;;;;;;;4893036;29;20032;-79
2022/01/21 11:25:49;;;;;;;5.55;3.35;;;;;;;;;;4877306;29;20091;-79
2022/01/21 11:28:17;;;;;;;3.70;2.03;;;;;;;;;;4894584;29;20041;-79
2022/01/21 11:30:43;;;;;;;4.82;3.35;;;;;;;;;;4894741;29;20091;-80
2022/01/21 11:33:09;;;;;;;7.82;4.53;;;;;;;;;;4894648;29;20127;-79
2022/01/21 11:35:35;;;;;;;5.88;2.83;;;;;;;;;;4875666;29;20115;-79
2022/01/21 11:38:07;;;;;;;5.32;2.95;;;;;;;;;;4894564;29;20388;-78
2022/01/21 11:40:33;;;;;;;3.45;1.98;;;;;;;;;;4895147;29;20021;-81
2022/01/21 11:42:59;;;;;;;5.18;2.78;;;;;;;;;;4894949;29;20043;-79
2022/01/21 11:50:42;;;;;;;3.35;2.10;;;;;;;;;;4894415;29;20044;-80
2022/01/21 11:53:08;;;;;;;3.80;2.53;;;;;;;;;;4894706;29;20048;-80
2022/01/21 11:55:39;;;;;;;5.13;2.60;;;;;;;;;;4895239;29;20075;-80
2022/01/21 11:58:22;;;;;;;8.15;3.50;;;;;;;;;;4894476;29;20036;-80
2022/01/21 12:00:50;;;;;;;3.95;2.08;;;;;;;;;;4894551;29;20537;-79
2022/01/21 12:03:25;;;;;;;2.72;1.77;;;;;;;;;;4895735;29;20401;-81
2022/01/21 12:05:51;;;;;;;2.63;1.63;;;;;;;;;;4897282;29;20036;-78
2022/01/21 12:08:46;;;;;;;7.90;3.28;;;;;;;;;;4897730;29;20032;-80
2022/01/21 12:11:36;;;;;;;2.28;1.85;;;;;;;;;;4897381;29;20039;-79
2022/01/21 12:14:25;;;;;;;2.22;1.45;;;;;;;;;;4898477;29;20033;-78
2022/01/21 12:16:57;;;;;;;12.70;5.22;;;;;;;;;;4896917;29;20048;-78
2022/01/21 12:19:36;;;;;;;11.98;5.63;;;;;;;;;;4897626;29;20492;-80
2022/01/21 12:22:17;;;;;;;10.27;5.28;;;;;;;;;;4896450;29;20033;-79
2022/01/21 12:25:06;;;;;;;5.53;3.35;;;;;;;;;;4896947;29;20035;-77
2022/01/21 12:27:32;;;;;;;8.03;4.07;;;;;;;;;;4886035;29;20041;-80
2022/01/21 12:30:20;;;;;;;7.93;3.35;;;;;;;;;;4896353;29;20116;-80
2022/01/21 12:33:09;;;;;;;6.10;3.75;;;;;;;;;;4895857;29;20051;-84
2022/01/21 12:35:35;;;;;;;6.97;3.00;;;;;;;;;;4897496;29;20388;-81
2022/01/21 12:41:23;;;;;;;5.38;2.15;;;;;;;;;;4896344;29;20045;-78
2022/01/21 12:43:56;;;;;;;4.10;1.85;;;;;;;;;;4880629;29;20032;-81
2022/01/21 12:46:40;;;;;;;3.63;1.90;;;;;;;;;;4898607;29;20036;-80
2022/01/21 12:49:37;;;;;;;5.35;2.85;;;;;;;;;;4896751;29;20028;-80
2022/01/21 12:57:34;;;;;;;7.38;2.85;;;;;;;;;;4895322;29;20043;-78
2022/01/21 13:00:07;;;;;;;13.40;4.95;;;;;;;;;;4896066;29;20090;-80
2022/01/21 13:02:33;;;;;;;7.07;3.40;;;;;;;;;;4895195;29;20389;-81
2022/01/21 13:05:19;;;;;;;6.55;3.22;;;;;;;;;;4897428;29;20060;-80
2022/01/21 13:08:15;;;;;;;4.97;2.78;;;;;;;;;;4897284;29;20079;-80
2022/01/21 13:10:41;;;;;;;6.93;2.90;;;;;;;;;;4896320;29;20060;-78
2022/01/21 13:15:38;;;;;;;4.00;2.53;;;;;;;;;;4897317;29;20412;-78
2022/01/21 13:18:31;;;;;;;9.18;3.17;;;;;;;;;;4893127;29;20481;-79
2022/01/21 13:21:07;;;;;;;6.95;3.60;;;;;;;;;;4897253;29;20024;-80
2022/01/21 13:23:40;;;;;;;7.05;3.22;;;;;;;;;;4878766;29;20716;-79
2022/01/21 13:26:25;;;;;;;3.05;1.88;;;;;;;;;;4895796;29;20048;-78
2022/01/21 13:29:00;;;;;;;5.35;2.67;;;;;;;;;;4895181;29;20522;-78
2022/01/21 13:31:27;;;;;;;5.18;2.40;;;;;;;;;;4896590;29;20414;-79
2022/01/21 13:34:05;;;;;;;8.18;3.20;;;;;;;;;;4877278;29;20051;-78
2022/01/21 13:37:00;;;;;;;6.05;3.33;;;;;;;;;;4895580;29;20058;-79
2022/01/21 13:39:34;;;;;;;4.43;2.30;;;;;;;;;;4891701;29;20044;-78
2022/01/21 13:42:11;;;;;;;6.75;3.10;;;;;;;;;;4897104;29;20024;-79
2022/01/21 13:44:45;;;;;;;1.85;1.17;;;;;;;;;;4897295;29;20366;-77
2022/01/21 13:47:29;;;;;;;3.33;1.38;;;;;;;;;;4896385;29;22672;-80
2022/01/21 13:49:57;;;;;;;2.15;1.25;;;;;;;;;;4895144;29;20430;-80
2022/01/21 13:52:42;;;;;;;7.90;3.47;;;;;;;;;;4896814;29;20028;-79
2022/01/21 13:55:11;;;;;;;5.57;3.45;;;;;;;;;;4896806;29;20051;-78
2022/01/21 13:57:43;;;;;;;9.00;3.20;;;;;;;;;;4896459;29;20065;-79
2022/01/21 14:00:09;;;;;;;4.20;2.50;;;;;;;;;;4896499;29;20267;-78
2022/01/21 14:02:35;;;;;;;1.73;1.08;;;;;;;;;;4894970;29;20024;-80
2022/01/21 14:05:03;;;;;;;4.25;1.85;;;;;;;;;;4896265;29;20032;-79
2022/01/21 14:07:33;;;;;;;2.42;1.50;;;;;;;;;;4896564;29;20401;-80
2022/01/21 14:10:02;;;;;;;5.57;2.40;;;;;;;;;;4895139;29;20032;-79
2022/01/21 14:12:30;;;;;;;2.72;1.73;;;;;;;;;;4896332;29;20036;-82
2022/01/21 14:14:56;;;;;;;5.85;2.40;;;;;;;;;;4895897;29;20032;-81
2022/01/21 14:17:24;;;;;;;3.22;1.65;;;;;;;;;;4896229;29;20031;-81
2022/01/21 14:19:54;;;;;;;4.57;1.70;;;;;;;;;;4895805;29;20032;-79
2022/01/21 14:22:20;;;;;;;;;;;;;;;;;;4896387;29;20362;-79
2022/01/21 14:24:48;;;;;;;6.07;3.20;;;;;;;;;;4876662;29;19927;-79
2022/01/21 14:27:31;;;;;;;6.65;3.60;;;;;;;;;;4896448;29;20112;-79
2022/01/21 14:30:00;;;;;;;4.10;2.08;;;;;;;;;;4894340;29;20054;-79
2022/01/21 14:32:36;;;;;;;6.38;3.50;;;;;;;;;;4893625;29;20493;-79
2022/01/21 14:35:12;;;;;;;4.57;2.30;;;;;;;;;;4893645;29;20481;-80
2022/01/21 14:37:50;;;;;;;7.38;2.25;;;;;;;;;;4895615;29;20033;-81
2022/01/21 14:40:21;;;;;;;3.78;2.30;;;;;;;;;;4891751;29;20127;-80
2022/01/21 14:42:46;;;;;;;3.45;1.70;;;;;;;;;;4893651;29;20036;-79
2022/01/21 14:45:18;;;;;;;4.63;2.10;;;;;;;;;;4891781;29;20033;-79
2022/01/21 14:47:45;;;;;;;4.95;1.60;;;;;;;;;;4891489;29;20072;-79
2022/01/21 14:50:14;;;;;;;9.60;2.95;;;;;;;;;;4895179;29;20036;-79
2022/01/21 14:52:46;;;;;;;5.32;2.53;;;;;;;;;;4894965;29;20047;-80
2022/01/21 14:55:22;;;;;;;8.43;2.45;;;;;;;;;;4895201;29;20036;-77
2022/01/21 14:57:56;;;;;;;6.53;3.33;;;;;;;;;;4895255;29;20024;-79
2022/01/21 15:00:30;;;;;;;6.22;4.18;;;;;;;;;;4877604;29;20036;-80
2022/01/21 15:03:27;;;;;;;6.60;2.67;;;;;;;;;;4894357;29;20574;-79
2022/01/21 15:05:57;;;;;;;3.40;2.28;;;;;;;;;;4894560;29;20037;-79
2022/01/21 15:08:37;;;;;;;4.10;2.55;;;;;;;;;;4894365;29;20036;-78
2022/01/21 15:11:18;;;;;;;;;;;;;;;;;;4871827;29;20497;-79
2022/01/21 15:16:27;;;;;;;5.20;2.40;;;;;;;;;;4895870;29;20035;-80
2022/01/21 15:18:54;;;;;;;3.30;1.88;;;;;;;;;;4877672;29;20474;-80
2022/01/21 15:21:23;;;;;;;5.03;2.40;;;;;;;;;;4895399;29;20413;-80
2022/01/21 15:23:50;;;;;;;3.88;2.25;;;;;;;;;;4895043;29;20028;-80
2022/01/21 15:26:18;;;;;;;4.85;3.00;;;;;;;;;;4894969;29;20067;-81
2022/01/21 15:28:45;;;;;;;3.67;1.60;;;;;;;;;;4877815;29;20040;-79
2022/01/21 15:31:11;;;;;;;9.77;2.47;;;;;;;;;;4893303;29;20033;-79
2022/01/21 15:33:37;;;;;;;5.82;2.20;;;;;;;;;;4893289;29;20401;-83
2022/01/21 15:36:03;;;;;;;1.90;1.58;;;;;;;;;;4894826;29;20491;-78
2022/01/21 15:38:29;;;;;;;2.53;1.45;;;;;;;;;;4897337;29;20377;-76
2022/01/21 15:40:55;;;;;;;2.88;1.63;;;;;;;;;;4896694;29;20028;-80
2022/01/21 15:43:20;;;;;;;5.18;2.75;;;;;;;;;;4897900;29;20032;-80
2022/01/21 15:45:46;;;;;;;2.85;1.73;;;;;;;;;;4898034;29;20358;-79
2022/01/21 15:48:13;;;;;;;2.92;1.60;;;;;;;;;;4898042;29;20060;-78
2022/01/21 15:50:39;;;;;;;5.50;2.70;;;;;;;;;;4898054;29;20024;-78
2022/01/21 15:53:04;;;;;;;4.90;2.50;;;;;;;;;;4898313;29;20080;-81
2022/01/21 15:55:30;;;;;;;4.53;3.22;;;;;;;;;;4897860;29;20504;-80
2022/01/21 15:57:56;;;;;;;5.60;3.35;;;;;;;;;;4894770;29;20033;-81
2022/01/21 16:00:21;;;;;;;7.60;3.53;;;;;;;;;;4896533;29;20059;-78
2022/01/21 16:02:49;;;;;;;8.25;3.65;;;;;;;;;;4896205;29;20036;-82
2022/01/21 16:05:15;;;;;;;10.90;5.30;;;;;;;;;;4897771;29;20029;-81
2022/01/21 16:07:40;;;;;;;19.48;5.47;;;;;;;;;;4897690;29;20047;-80
2022/01/21 16:10:06;;;;;;;13.85;6.15;;;;;;;;;;4897702;29;20033;-80
2022/01/21 16:12:32;;;;;;;14.65;6.90;;;;;;;;;;4897562;29;20044;-80
2022/01/21 16:14:57;;;;;;;15.02;7.80;;;;;;;;;;4895505;29;20025;-80
2022/01/21 16:17:25;;;;;;;12.25;7.00;;;;;;;;;;4897944;29;20036;-80
2022/01/21 16:19:52;;;;;;;19.50;10.13;;;;;;;;;;4898245;29;20036;-82
2022/01/21 16:22:17;;;;;;;13.30;8.40;;;;;;;;;;4896546;29;20036;-78
2022/01/21 16:24:43;;;;;;;13.30;7.65;;;;;;;;;;4897154;29;20033;-79
2022/01/21 16:27:08;;;;;;;16.70;8.70;;;;;;;;;;4880836;29;20461;-80